Pagrindinis puslapis
METAR-TAF:

METAR-TAF

Oro uostai :

Hearne Municipal Airport

Hearne, Teksasas, Jungtinės Amerikos Valstijos

platuma: 30-52-18N, ilguma: 096-37-20W, Aukštis: 87 m

Dabartinis oras

Ataskaita buvo paskelbta 26 minutes, ne 11:15 UTC
Vėjas 7 kt iš Šiaurės
Temperatūra 21°C
Drėgmė 88%
Slėgis 1018 hPa
Matomumas: 16.1 km
Giedras dangus

METAR: KLHB 291115Z AUTO 01007KT 10SM CLR 21/19 A3006 RMK AO2 T02080185

Laikas: 06:41 (11:41 UTC)


TAF: trūkstamas

Orai ataskaitas ir orų prognozės (METAR, TAF).

turimą stotys yra geltonos ir raudonos taškus žemėlapyje.

Perkelti pele per norėdami pamatyti stoties vardą.

Tada spustelėkite, norėdami matyti oro stebėjimo ir prognozės.

Norėdami pakeisti žemėlapį: spustelėkite ant žalios mygtukų su juodo kryžiaus žemyn,; žalią mygtuką su brūkšneliu, jei norite nutolinti; arba žalių rodyklių gretimoms žemėlapius.


METAR-TAF: